Hudson, Wyoming
Current Conditions -  °F | °C
As of 5:53 PM on Tuesday 21 Oct 2014 (Local Time) from KLND Reporting Station
Scattered Clouds Scattered Clouds  
Wind Chill: 62°   Ceiling: Unl
Heat Index: 62°   Visibility: 10mi
Dew Point: 32°   Wind: 10mph
Humidity: 32%   Direction: 230°SW
Pressure: 29.87"   Gusts: 35mph
Location:  42.91°N, 108.58°W
Report Text: KLND 212353Z AUTO 23009G30KT 10SM SCT080 17/00 A2987 RMK AO2 PK WND 23030/2345 SLP077 60000 T01670000 10217 20161 53011 TSNO
Loading
Personal Weather Stations






























Interactive Weather Map
Tropical Storm Tracking
New forecast layout! Learn more

10-Day Weather Forecast

Advertisements
Track Severe Weather on mobile